Genbu — JD4128 — position and weather

sailwx.info

Track history (hours):
 
Tides and Currents Weather Stations Pressure Air Temp Water Temp Dewpoint Dewpoint Depression Visibility Wind Speed Wind Dir Waves Ship Positions

Genbu

Last reported at 2018-Jun-21 09:27 UTC. Time now 2018-Jun-21 14:29 UTC.
Position N 35°06' E 139°44'.

Length 149 m; draft 6.7 m.

Type: Ship. MMSI: 431009113.

Date/timePositionNaut miles runAvg speedWind from/ knotsBaromVisibWave heightAir tempDewpointWater temp
2018-Jun-21 09:27N 35°06' E 139°44'716.3
2018-Jun-21 09:00N 35°13' E 139°46'510.7
2018-Jun-21 08:30N 35°18' E 139°44'612.4
2018-Jun-21 08:00N 35°24' E 139°42'714.8
2018-Jun-21 07:30N 35°30' E 139°48'1 0.3
2018-Jun-21 03:26N 35°30' E 139°46'1 1.8
2018-Jun-21 03:00N 35°30' E 139°45'4 7.4
2018-Jun-21 02:30N 35°27' E 139°43'4 8.0
2018-Jun-21 02:00N 35°24' E 139°46'5 9.6
2018-Jun-21 01:30N 35°20' E 139°44'4 8.2
2018-Jun-21 01:00N 35°19' E 139°39'0 0.0
2018-Jun-21 00:30N 35°19' E 139°39'0 0.0
2018-Jun-21 00:00N 35°19' E 139°39'0 0.0
2018-Jun-20 23:30N 35°19' E 139°39'0 0.3
2018-Jun-20 23:00N 35°19' E 139°39'611.2
2018-Jun-20 22:30N 35°24' E 139°43'815.0
2018-Jun-20 22:00N 35°30' E 139°48'1 2.4
2018-Jun-20 21:27N 35°30' E 139°46'0 0.0
2018-Jun-20 20:57N 35°30' E 139°46'0 0.0
2018-Jun-20 20:21N 35°30' E 139°46'0 0.0
2018-Jun-20 19:57N 35°30' E 139°46'0 0.0
2018-Jun-20 19:21N 35°30' E 139°46'0 0.0
2018-Jun-20 18:57N 35°30' E 139°46'0 0.0
2018-Jun-20 18:15N 35°30' E 139°46'0 0.0
2018-Jun-20 17:27N 35°30' E 139°46'0 0.0
2018-Jun-20 16:51N 35°30' E 139°46'0 0.0
2018-Jun-20 16:27N 35°30' E 139°46'0 0.0
2018-Jun-20 15:57N 35°30' E 139°46'0 0.0
2018-Jun-20 15:27N 35°30' E 139°46'0 0.0
2018-Jun-20 14:57N 35°30' E 139°46'0 0.0
2018-Jun-20 14:27N 35°30' E 139°46'0 0.0
2018-Jun-20 13:51N 35°30' E 139°46'0 0.0
2018-Jun-20 13:09N 35°30' E 139°46'0 0.0
2018-Jun-20 12:51N 35°30' E 139°46'0 0.0
2018-Jun-20 12:27N 35°30' E 139°46'0 0.0
2018-Jun-20 11:45N 35°30' E 139°46'0 0.0
2018-Jun-20 11:27N 35°30' E 139°46'0 0.0
2018-Jun-20 10:51N 35°30' E 139°46'0 0.0
2018-Jun-20 10:27N 35°30' E 139°46'0 0.0
2018-Jun-20 09:57N 35°30' E 139°46'0 0.0
2018-Jun-20 09:21N 35°30' E 139°46'0 0.0
2018-Jun-20 08:51N 35°30' E 139°46'0 0.0
2018-Jun-20 08:27N 35°30' E 139°46'0 0.0
2018-Jun-20 07:57N 35°30' E 139°46'0 0.0
2018-Jun-20 07:21N 35°30' E 139°46'0 0.0
2018-Jun-20 06:57N 35°30' E 139°46'0 0.0
2018-Jun-20 04:39N 35°30' E 139°46'0 0.0
2018-Jun-20 04:26N 35°30' E 139°46'0 0.0
2018-Jun-20 03:36N 35°30' E 139°46'0 0.0
2018-Jun-20 03:30N 35°30' E 139°46'0 0.0
2018-Jun-20 02:50N 35°30' E 139°46'0 0.0
2018-Jun-20 01:09N 35°30' E 139°46'0 0.0
2018-Jun-20 01:00N 35°30' E 139°46'3 5.2
2018-Jun-20 00:30N 35°30' E 139°43'4 8.4
2018-Jun-20 00:00N 35°26' E 139°45'510.2
2018-Jun-19 23:30N 35°21' E 139°45'510.7
2018-Jun-19 23:00N 35°16' E 139°47'713.2
2018-Jun-19 22:30N 35°09' E 139°45'  
2018-Jun-16 08:29N 35°04' E 139°43'917.6
2018-Jun-16 07:59N 35°12' E 139°46'511.2
2018-Jun-16 07:30N 35°17' E 139°45'5 9.4
2018-Jun-16 07:00N 35°19' E 139°39'0 0.2
2018-Jun-16 06:30N 35°19' E 139°39'0 0.0
2018-Jun-16 05:54N 35°19' E 139°39'0 0.0
2018-Jun-16 05:30N 35°19' E 139°39'0 0.0
2018-Jun-16 04:59N 35°19' E 139°39'0 0.0
2018-Jun-16 04:30N 35°19' E 139°39'2 3.9
2018-Jun-16 04:00N 35°20' E 139°41'816.5
2018-Jun-16 03:30N 35°27' E 139°45'3 2.4
2018-Jun-16 02:05N 35°30' E 139°46'0 0.0
2018-Jun-16 01:47N 35°30' E 139°46'0 0.0
2018-Jun-16 01:11N 35°30' E 139°46'0 0.0
2018-Jun-16 00:56N 35°30' E 139°46'0 0.0
2018-Jun-15 22:26N 35°30' E 139°46'0 0.0
2018-Jun-15 20:20N 35°30' E 139°46'0 0.0
2018-Jun-15 19:26N 35°30' E 139°46'0 0.0
2018-Jun-15 18:50N 35°30' E 139°46'0 0.0
2018-Jun-15 18:20N 35°30' E 139°46'0 0.0
2018-Jun-15 17:38N 35°30' E 139°46'0 0.0
2018-Jun-15 17:20N 35°30' E 139°46'0 0.0
2018-Jun-15 16:56N 35°30' E 139°46'0 0.0
2018-Jun-15 16:26N 35°30' E 139°46'0 0.0
2018-Jun-15 15:47N 35°30' E 139°46'0 0.0
2018-Jun-15 15:29N 35°30' E 139°46'0 0.0
2018-Jun-15 14:56N 35°30' E 139°46'0 0.0
2018-Jun-15 14:26N 35°30' E 139°46'0 0.0
2018-Jun-15 13:59N 35°30' E 139°46'0 0.0
2018-Jun-15 13:26N 35°30' E 139°46'0 0.0
2018-Jun-15 12:56N 35°30' E 139°46'0 0.0
2018-Jun-15 12:20N 35°30' E 139°46'0 0.0
2018-Jun-15 11:50N 35°30' E 139°46'0 0.0
2018-Jun-15 11:26N 35°30' E 139°46'0 0.0
2018-Jun-15 10:56N 35°30' E 139°46'0 0.0
2018-Jun-15 07:23N 35°30' E 139°46'0 0.0
2018-Jun-15 06:59N 35°30' E 139°46'0 0.0
2018-Jun-15 05:47N 35°30' E 139°46'0 0.0
2018-Jun-15 03:17N 35°30' E 139°46'0 0.0
2018-Jun-15 01:59N 35°30' E 139°46'0 0.0
2018-Jun-15 01:29N 35°30' E 139°46'0 0.0
2018-Jun-15 00:59N 35°30' E 139°46'0 0.0
2018-Jun-15 00:30N 35°30' E 139°46'3 5.9
2018-Jun-15 00:00N 35°29' E 139°43'5 9.3
2018-Jun-14 23:30N 35°25' E 139°45'510.6
2018-Jun-14 23:00N 35°20' E 139°44'5 9.8
2018-Jun-14 22:31N 35°16' E 139°47'611.4
2018-Jun-14 22:00N 35°10' E 139°46'918.7
2018-Jun-14 21:30N 35°01' E 139°42'  
Track history (hours):
 
Tides and Currents Weather Stations Pressure Air Temp Water Temp Dewpoint Dewpoint Depression Visibility Wind Speed Wind Dir Waves Ship Positions

Genbu

Last reported at 2018-Jun-21 09:27 UTC. Time now 2018-Jun-21 14:29 UTC.
Position N 35°06' E 139°44'.

Length 149 m; draft 6.7 m.

Type: Ship. MMSI: 431009113.

Date/timePositionNaut miles runAvg speedWind from/ knotsBaromVisibWave heightAir tempDewpointWater temp
2018-Jun-21 09:27N 35°06' E 139°44'716.3
2018-Jun-21 09:00N 35°13' E 139°46'510.7
2018-Jun-21 08:30N 35°18' E 139°44'612.4
2018-Jun-21 08:00N 35°24' E 139°42'714.8
2018-Jun-21 07:30N 35°30' E 139°48'1 0.3
2018-Jun-21 03:26N 35°30' E 139°46'1 1.8
2018-Jun-21 03:00N 35°30' E 139°45'4 7.4
2018-Jun-21 02:30N 35°27' E 139°43'4 8.0
2018-Jun-21 02:00N 35°24' E 139°46'5 9.6
2018-Jun-21 01:30N 35°20' E 139°44'4 8.2
2018-Jun-21 01:00N 35°19' E 139°39'0 0.0
2018-Jun-21 00:30N 35°19' E 139°39'0 0.0
2018-Jun-21 00:00N 35°19' E 139°39'0 0.0
2018-Jun-20 23:30N 35°19' E 139°39'0 0.3
2018-Jun-20 23:00N 35°19' E 139°39'611.2
2018-Jun-20 22:30N 35°24' E 139°43'815.0
2018-Jun-20 22:00N 35°30' E 139°48'1 2.4
2018-Jun-20 21:27N 35°30' E 139°46'0 0.0
2018-Jun-20 20:57N 35°30' E 139°46'0 0.0
2018-Jun-20 20:21N 35°30' E 139°46'0 0.0
2018-Jun-20 19:57N 35°30' E 139°46'0 0.0
2018-Jun-20 19:21N 35°30' E 139°46'0 0.0
2018-Jun-20 18:57N 35°30' E 139°46'0 0.0
2018-Jun-20 18:15N 35°30' E 139°46'0 0.0
2018-Jun-20 17:27N 35°30' E 139°46'0 0.0
2018-Jun-20 16:51N 35°30' E 139°46'0 0.0
2018-Jun-20 16:27N 35°30' E 139°46'0 0.0
2018-Jun-20 15:57N 35°30' E 139°46'0 0.0
2018-Jun-20 15:27N 35°30' E 139°46'0 0.0
2018-Jun-20 14:57N 35°30' E 139°46'0 0.0
2018-Jun-20 14:27N 35°30' E 139°46'0 0.0
2018-Jun-20 13:51N 35°30' E 139°46'0 0.0
2018-Jun-20 13:09N 35°30' E 139°46'0 0.0
2018-Jun-20 12:51N 35°30' E 139°46'0 0.0
2018-Jun-20 12:27N 35°30' E 139°46'0 0.0
2018-Jun-20 11:45N 35°30' E 139°46'0 0.0
2018-Jun-20 11:27N 35°30' E 139°46'0 0.0
2018-Jun-20 10:51N 35°30' E 139°46'0 0.0
2018-Jun-20 10:27N 35°30' E 139°46'0 0.0
2018-Jun-20 09:57N 35°30' E 139°46'0 0.0
2018-Jun-20 09:21N 35°30' E 139°46'0 0.0
2018-Jun-20 08:51N 35°30' E 139°46'0 0.0
2018-Jun-20 08:27N 35°30' E 139°46'0 0.0
2018-Jun-20 07:57N 35°30' E 139°46'0 0.0
2018-Jun-20 07:21N 35°30' E 139°46'0 0.0
2018-Jun-20 06:57N 35°30' E 139°46'0 0.0
2018-Jun-20 04:39N 35°30' E 139°46'0 0.0
2018-Jun-20 04:26N 35°30' E 139°46'0 0.0
2018-Jun-20 03:36N 35°30' E 139°46'0 0.0
2018-Jun-20 03:30N 35°30' E 139°46'0 0.0
2018-Jun-20 02:50N 35°30' E 139°46'0 0.0
2018-Jun-20 01:09N 35°30' E 139°46'0 0.0
2018-Jun-20 01:00N 35°30' E 139°46'3 5.2
2018-Jun-20 00:30N 35°30' E 139°43'4 8.4
2018-Jun-20 00:00N 35°26' E 139°45'510.2
2018-Jun-19 23:30N 35°21' E 139°45'510.7
2018-Jun-19 23:00N 35°16' E 139°47'713.2
2018-Jun-19 22:30N 35°09' E 139°45'  
2018-Jun-16 08:29N 35°04' E 139°43'917.6
2018-Jun-16 07:59N 35°12' E 139°46'511.2
2018-Jun-16 07:30N 35°17' E 139°45'5 9.4
2018-Jun-16 07:00N 35°19' E 139°39'0 0.2
2018-Jun-16 06:30N 35°19' E 139°39'0 0.0
2018-Jun-16 05:54N 35°19' E 139°39'0 0.0
2018-Jun-16 05:30N 35°19' E 139°39'0 0.0
2018-Jun-16 04:59N 35°19' E 139°39'0 0.0
2018-Jun-16 04:30N 35°19' E 139°39'2 3.9
2018-Jun-16 04:00N 35°20' E 139°41'816.5
2018-Jun-16 03:30N 35°27' E 139°45'3 2.4
2018-Jun-16 02:05N 35°30' E 139°46'0 0.0
2018-Jun-16 01:47N 35°30' E 139°46'0 0.0
2018-Jun-16 01:11N 35°30' E 139°46'0 0.0
2018-Jun-16 00:56N 35°30' E 139°46'0 0.0
2018-Jun-15 22:26N 35°30' E 139°46'0 0.0
2018-Jun-15 20:20N 35°30' E 139°46'0 0.0
2018-Jun-15 19:26N 35°30' E 139°46'0 0.0
2018-Jun-15 18:50N 35°30' E 139°46'0 0.0
2018-Jun-15 18:20N 35°30' E 139°46'0 0.0
2018-Jun-15 17:38N 35°30' E 139°46'0 0.0
2018-Jun-15 17:20N 35°30' E 139°46'0 0.0
2018-Jun-15 16:56N 35°30' E 139°46'0 0.0
2018-Jun-15 16:26N 35°30' E 139°46'0 0.0
2018-Jun-15 15:47N 35°30' E 139°46'0 0.0
2018-Jun-15 15:29N 35°30' E 139°46'0 0.0
2018-Jun-15 14:56N 35°30' E 139°46'0 0.0
2018-Jun-15 14:26N 35°30' E 139°46'0 0.0
2018-Jun-15 13:59N 35°30' E 139°46'0 0.0
2018-Jun-15 13:26N 35°30' E 139°46'0 0.0
2018-Jun-15 12:56N 35°30' E 139°46'0 0.0
2018-Jun-15 12:20N 35°30' E 139°46'0 0.0
2018-Jun-15 11:50N 35°30' E 139°46'0 0.0
2018-Jun-15 11:26N 35°30' E 139°46'0 0.0
2018-Jun-15 10:56N 35°30' E 139°46'0 0.0
2018-Jun-15 07:23N 35°30' E 139°46'0 0.0
2018-Jun-15 06:59N 35°30' E 139°46'0 0.0
2018-Jun-15 05:47N 35°30' E 139°46'0 0.0
2018-Jun-15 03:17N 35°30' E 139°46'0 0.0
2018-Jun-15 01:59N 35°30' E 139°46'0 0.0
2018-Jun-15 01:29N 35°30' E 139°46'0 0.0
2018-Jun-15 00:59N 35°30' E 139°46'0 0.0
2018-Jun-15 00:30N 35°30' E 139°46'3 5.9
2018-Jun-15 00:00N 35°29' E 139°43'5 9.3
2018-Jun-14 23:30N 35°25' E 139°45'510.6
2018-Jun-14 23:00N 35°20' E 139°44'5 9.8
2018-Jun-14 22:31N 35°16' E 139°47'611.4
2018-Jun-14 22:00N 35°10' E 139°46'918.7
2018-Jun-14 21:30N 35°01' E 139°42'  

Dump ship's entire track history